Hauptseite
METAR-TAF:

METAR-TAF

Flughäfen :

Flughafen Bamako

Bamako, Mali

Breite: 12-32N, Länge: 007-57W, Höhe: 380 m

Beobachtung

Neuester Wetterbericht von vor 49 Minuten, um 05:00 UTC
Wind 1 kt aus unterschiedlichen Richtungen
Temperatur 22°C
Luftfeuchtigkeit 73%
Luftdruck 1013 hPa
Sichtweite 10 km oder mehr
keine Wolken unter 1500 m und keine Kumulonimbus oder Gewitterwolken

METAR: GABS 170500Z VRB01KT CAVOK 22/17 Q1013 NOSIG

Zeit: 05:49 (05:49 UTC)

Prognose

Neuester Wetterbericht von vor 6 Stunden und 29 Minuten, um 23:20 UTC
Gültige Prognose vom 17 um 00 UTC bis 18 um 06 UTC
Wind 8 kt aus Ost/Nordost
Sichtweite: 8000 m
Zeitweise
vom 17 um 07 UTC bis 17 um 12 UTC
Sichtweite: 3000 m
verbreitet Staub

TAF: GABS 162320Z 1700/1806 06008KT 8000 NSC TEMPO 1707/1712 3000 DU

Wetterbeobachtungen und Prognosen von mehr als 4000 Flughäfen (METAR und TAF Bericht).

Die verfügbaren Stationen werden durch gelbe und rote Markierungen auf der Karte dargestellt.

Führen Sie die Maus auf sie, um den Namen der Station zu sehen.

Darauf klicken, um die Beobachtung von Wetterbeobachtungen und Prognosen zu sehen.

Um die Karte zu ändern : klicken Sie auf den grünen Tasten mit einem schwarzen Kreuz Zum Vergrößern, auf den grünen Button mit einem Gedankenstrich zu verkleinern, oder auf die grünen Pfeile für benachbarte Karten.


METAR-TAF: